createdAt,value
2019-04-21T00:01:34.669Z,94.61
2019-04-21T00:04:09.827Z,100.00
2019-04-21T00:06:48.369Z,100.00
2019-04-21T00:09:30.552Z,100.00
2019-04-21T00:11:59.858Z,100.00
2019-04-21T00:14:18.403Z,100.00
2019-04-21T00:16:45.453Z,100.00
2019-04-21T00:19:28.104Z,100.00
2019-04-21T00:22:05.971Z,100.00
2019-04-21T00:24:41.224Z,100.00
2019-04-21T00:27:15.984Z,100.00
2019-04-21T00:29:48.242Z,100.00
2019-04-21T00:32:16.746Z,100.00
2019-04-21T00:34:34.163Z,100.00
2019-04-21T00:37:16.878Z,100.00
2019-04-21T00:40:01.929Z,100.00
2019-04-21T00:42:25.679Z,100.00
2019-04-21T00:44:56.628Z,100.00
2019-04-21T00:47:30.615Z,100.00
2019-04-21T00:50:05.054Z,100.00
2019-04-21T00:55:39.455Z,100.00
2019-04-21T00:58:16.008Z,100.00
2019-04-21T01:00:46.471Z,100.00
2019-04-21T01:03:09.310Z,100.00
2019-04-21T01:05:42.071Z,100.00
2019-04-21T01:08:09.525Z,100.00
2019-04-21T01:10:35.901Z,100.00
2019-04-21T01:13:16.474Z,100.00
2019-04-21T01:15:48.965Z,100.00
2019-04-21T01:18:16.541Z,100.00
2019-04-21T01:20:28.984Z,100.00
2019-04-21T01:23:00.136Z,100.00
2019-04-21T01:25:37.236Z,100.00
2019-04-21T01:28:21.397Z,100.00
2019-04-21T01:30:54.928Z,100.00
2019-04-21T01:33:26.261Z,100.00
2019-04-21T01:35:55.496Z,100.00
2019-04-21T01:38:35.689Z,100.00
2019-04-21T01:41:08.368Z,100.00
2019-04-21T01:43:27.850Z,100.00
2019-04-21T01:45:59.547Z,100.00
2019-04-21T01:48:30.676Z,100.00
2019-04-21T01:51:01.580Z,100.00
2019-04-21T01:53:48.336Z,100.00
2019-04-21T01:56:51.000Z,100.00
2019-04-21T01:59:18.862Z,100.00
2019-04-21T02:02:02.250Z,100.00
2019-04-21T02:04:36.703Z,100.00
2019-04-21T02:07:03.090Z,100.00
2019-04-21T02:09:37.481Z,100.00
2019-04-21T02:12:12.102Z,100.00
2019-04-21T02:14:46.327Z,100.00
2019-04-21T02:17:14.469Z,100.00
2019-04-21T02:19:35.973Z,100.00
2019-04-21T02:22:11.573Z,100.00
2019-04-21T02:24:49.687Z,100.00
2019-04-21T02:27:21.040Z,100.00
2019-04-21T02:29:55.866Z,100.00
2019-04-21T02:32:41.849Z,100.00
2019-04-21T02:35:14.623Z,100.00
2019-04-21T02:37:38.147Z,100.00
2019-04-21T02:42:37.713Z,100.00
2019-04-21T02:45:09.447Z,100.00
2019-04-21T02:47:48.592Z,100.00
2019-04-21T02:50:21.192Z,100.00
2019-04-21T02:52:43.939Z,100.00
2019-04-21T02:55:07.774Z,100.00
2019-04-21T02:57:51.480Z,100.00
2019-04-21T03:00:27.504Z,100.00
2019-04-21T03:11:11.116Z,100.00
2019-04-21T03:13:41.661Z,100.00
2019-04-21T03:16:20.136Z,100.00
2019-04-21T03:18:56.612Z,100.00
2019-04-21T03:21:16.283Z,100.00
2019-04-21T03:23:54.723Z,100.00
2019-04-21T03:28:54.634Z,100.00
2019-04-21T03:31:39.445Z,100.00
2019-04-21T03:38:59.139Z,100.00
2019-04-21T03:41:32.268Z,100.00
2019-04-21T03:43:59.204Z,100.00
2019-04-21T03:46:32.824Z,100.00
2019-04-21T03:49:02.313Z,100.00
2019-04-21T03:51:47.556Z,100.00
2019-04-21T03:54:00.053Z,100.00
2019-04-21T04:02:01.786Z,100.00
2019-04-21T04:04:37.196Z,100.00
2019-04-21T04:07:31.209Z,100.00
2019-04-21T04:15:07.159Z,100.00
2019-04-21T04:17:36.370Z,100.00
2019-04-21T04:20:03.933Z,100.00
2019-04-21T04:22:41.615Z,100.00
2019-04-21T04:25:11.496Z,100.00
2019-04-21T04:27:53.794Z,100.00
2019-04-21T04:30:12.562Z,100.00
2019-04-21T04:35:34.142Z,100.00
2019-04-21T04:40:41.483Z,100.00
2019-04-21T04:43:19.539Z,100.00
2019-04-21T04:45:46.672Z,100.00
2019-04-21T04:48:11.698Z,100.00
2019-04-21T04:53:31.154Z,100.00
2019-04-21T04:58:37.990Z,100.00
2019-04-21T05:01:06.275Z,100.00
2019-04-21T05:03:37.266Z,100.00
2019-04-21T05:06:42.114Z,100.00
2019-04-21T05:16:40.975Z,100.00
2019-04-21T05:19:10.643Z,100.00
2019-04-21T05:24:13.577Z,100.00
2019-04-21T05:26:23.394Z,100.00
2019-04-21T05:28:56.793Z,100.00
2019-04-21T05:32:01.473Z,100.00
2019-04-21T05:34:30.595Z,100.00
2019-04-21T05:37:25.983Z,100.00
2019-04-21T05:39:52.351Z,100.00
2019-04-21T05:42:24.982Z,100.00
2019-04-21T05:45:16.024Z,100.00
2019-04-21T05:47:46.306Z,100.00
2019-04-21T05:50:11.622Z,100.00
2019-04-21T05:52:51.409Z,100.00
2019-04-21T05:58:02.718Z,100.00
2019-04-21T06:00:56.051Z,100.00
2019-04-21T06:03:09.904Z,100.00
2019-04-21T06:05:47.318Z,100.00
2019-04-21T06:08:13.218Z,100.00
2019-04-21T06:10:50.856Z,99.84
2019-04-21T06:13:19.911Z,98.76
2019-04-21T06:15:52.903Z,96.57
2019-04-21T06:18:21.714Z,94.40
2019-04-21T06:20:51.809Z,90.37
2019-04-21T06:23:25.510Z,89.41
2019-04-21T06:28:30.542Z,87.75
2019-04-21T06:31:09.689Z,85.69
2019-04-21T06:33:39.417Z,84.72
2019-04-21T06:36:32.014Z,80.50
2019-04-21T06:41:32.585Z,77.79
2019-04-21T06:44:01.346Z,75.96
2019-04-21T06:46:35.492Z,74.84
2019-04-21T06:49:03.111Z,76.13
2019-04-21T06:51:48.273Z,75.17
2019-04-21T06:54:23.910Z,72.31
2019-04-21T06:56:40.930Z,64.80
2019-04-21T06:59:09.528Z,64.06
2019-04-21T07:01:55.275Z,61.83
2019-04-21T07:06:59.299Z,54.61
2019-04-21T07:09:20.761Z,54.47
2019-04-21T07:11:44.393Z,50.85
2019-04-21T07:14:29.372Z,50.48
2019-04-21T07:16:57.792Z,47.94
2019-04-21T07:19:33.336Z,47.58
2019-04-21T07:21:55.534Z,47.10
2019-04-21T07:27:05.754Z,46.38
2019-04-21T07:29:34.715Z,45.78
2019-04-21T07:32:06.511Z,45.70
2019-04-21T07:34:36.277Z,45.66
2019-04-21T07:37:06.597Z,47.88
2019-04-21T07:39:35.843Z,46.58
2019-04-21T07:41:59.297Z,47.87
2019-04-21T07:44:32.896Z,44.43
2019-04-21T07:47:09.740Z,44.04
2019-04-21T07:52:35.125Z,46.35
2019-04-21T07:57:33.174Z,44.37
2019-04-21T08:02:46.318Z,47.10
2019-04-21T08:05:13.577Z,48.13
2019-04-21T08:10:10.479Z,47.67
2019-04-21T08:12:44.758Z,46.56
2019-04-21T08:15:24.614Z,45.32
2019-04-21T08:17:49.127Z,45.35
2019-04-21T08:20:18.480Z,45.85
2019-04-21T08:22:58.938Z,46.55
2019-04-21T08:25:27.262Z,44.25
2019-04-21T08:30:31.997Z,45.33
2019-04-21T08:33:12.422Z,43.38
2019-04-21T08:38:01.055Z,47.48
2019-04-21T08:40:37.537Z,70.03
2019-04-21T08:43:02.523Z,70.60
2019-04-21T08:45:45.011Z,48.74
2019-04-21T08:48:12.096Z,59.30
2019-04-21T08:50:37.647Z,61.65
2019-04-21T08:53:19.810Z,41.87
2019-04-21T08:55:58.029Z,40.61
2019-04-21T08:58:47.811Z,40.08
2019-04-21T09:01:18.127Z,39.69
2019-04-21T09:03:57.035Z,38.22
2019-04-21T09:06:32.683Z,38.09
2019-04-21T09:08:58.313Z,37.62
2019-04-21T09:11:33.660Z,38.03
2019-04-21T09:14:00.995Z,37.87
2019-04-21T09:16:30.930Z,35.56
2019-04-21T09:18:56.964Z,36.89
2019-04-21T09:21:42.383Z,39.42
2019-04-21T09:24:10.302Z,37.61
2019-04-21T09:26:34.013Z,37.19
2019-04-21T09:29:00.710Z,37.53
2019-04-21T09:31:26.997Z,34.77
2019-04-21T09:33:56.985Z,35.12
2019-04-21T09:36:33.406Z,36.04
2019-04-21T09:39:03.811Z,36.98
2019-04-21T09:41:28.342Z,31.01
2019-04-21T09:44:01.358Z,32.69
2019-04-21T09:46:34.127Z,34.50
2019-04-21T09:49:06.498Z,31.78
2019-04-21T09:51:34.623Z,32.51
2019-04-21T09:54:11.598Z,32.46
2019-04-21T09:56:45.427Z,32.24
2019-04-21T09:59:19.346Z,33.53
2019-04-21T10:01:55.941Z,29.61
2019-04-21T10:04:12.015Z,30.12
2019-04-21T10:06:43.187Z,28.98
2019-04-21T10:09:16.388Z,27.13
2019-04-21T10:11:45.912Z,27.29
2019-04-21T10:14:15.714Z,27.47
2019-04-21T10:17:10.888Z,27.47
2019-04-21T10:19:41.874Z,23.93
2019-04-21T10:22:12.671Z,23.60
2019-04-21T10:24:42.680Z,23.60
2019-04-21T10:27:13.383Z,23.81
2019-04-21T10:29:44.814Z,22.53
2019-04-21T10:32:13.638Z,22.62
2019-04-21T10:34:43.282Z,22.45
2019-04-21T10:37:13.239Z,21.21
2019-04-21T10:39:42.511Z,22.06
2019-04-21T10:42:13.184Z,22.95
2019-04-21T10:44:43.245Z,21.34
2019-04-21T10:47:14.472Z,22.47
2019-04-21T10:49:44.861Z,19.98
2019-04-21T10:52:42.804Z,20.54
2019-04-21T10:55:32.118Z,21.15
2019-04-21T10:58:04.502Z,19.82
2019-04-21T11:00:34.756Z,18.67
2019-04-21T11:03:22.738Z,17.12
2019-04-21T11:05:52.644Z,15.08
2019-04-21T11:08:28.404Z,12.88
2019-04-21T11:10:51.966Z,12.11
2019-04-21T11:13:21.026Z,12.52
2019-04-21T11:15:50.848Z,10.81
2019-04-21T11:18:19.865Z,10.25
2019-04-21T11:20:48.931Z,10.01
2019-04-21T11:23:19.625Z,9.61
2019-04-21T11:25:48.216Z,9.54
2019-04-21T11:28:18.648Z,8.45
2019-04-21T11:30:48.763Z,8.74
2019-04-21T11:33:17.581Z,9.20
2019-04-21T11:35:46.280Z,8.47
2019-04-21T11:38:23.600Z,8.27
2019-04-21T11:40:51.732Z,7.59
2019-04-21T11:43:22.029Z,7.59
2019-04-21T11:45:50.970Z,6.98
2019-04-21T11:48:26.579Z,7.29
2019-04-21T11:50:55.292Z,6.72
2019-04-21T11:53:25.116Z,6.19
2019-04-21T11:55:55.143Z,6.64
2019-04-21T11:58:26.024Z,6.57
2019-04-21T12:00:57.905Z,6.32
2019-04-21T12:03:27.508Z,5.92
2019-04-21T12:05:57.328Z,5.80
2019-04-21T12:08:33.083Z,5.49
2019-04-21T12:10:57.647Z,5.71
2019-04-21T12:13:27.793Z,5.73
2019-04-21T12:15:58.943Z,6.47
2019-04-21T12:18:29.726Z,5.59
2019-04-21T12:20:58.185Z,5.71
2019-04-21T12:23:27.019Z,5.99
2019-04-21T12:25:56.966Z,6.07
2019-04-21T12:28:26.157Z,5.39
2019-04-21T12:30:55.939Z,5.55
2019-04-21T12:33:40.051Z,5.30
2019-04-21T12:36:09.497Z,5.33
2019-04-21T12:38:44.714Z,4.89
2019-04-21T12:41:08.763Z,4.83
2019-04-21T12:43:39.027Z,5.45
2019-04-21T12:46:07.803Z,5.03
2019-04-21T12:48:38.020Z,4.65
2019-04-21T12:51:07.868Z,3.97
2019-04-21T12:53:36.632Z,4.04
2019-04-21T12:56:05.491Z,4.16
2019-04-21T12:58:35.257Z,4.17
2019-04-21T13:01:05.050Z,4.17
2019-04-21T13:03:34.088Z,4.11
2019-04-21T13:06:03.484Z,4.29
2019-04-21T13:08:41.514Z,4.00
2019-04-21T13:11:04.289Z,3.40
2019-04-21T13:13:33.140Z,3.61
2019-04-21T13:16:02.971Z,3.34
2019-04-21T13:18:33.164Z,3.54
2019-04-21T13:21:02.710Z,4.16
2019-04-21T13:23:34.629Z,4.03
2019-04-21T13:26:04.909Z,3.64
2019-04-21T13:28:34.982Z,3.61
2019-04-21T13:31:06.470Z,3.47
2019-04-21T13:33:37.631Z,3.21
2019-04-21T13:36:07.827Z,3.23
2019-04-21T13:38:50.414Z,3.27
2019-04-21T13:41:32.589Z,3.30
2019-04-21T13:44:11.003Z,3.58
2019-04-21T13:46:42.986Z,4.02
2019-04-21T13:49:13.715Z,3.54
2019-04-21T13:51:44.087Z,3.44
2019-04-21T13:54:14.038Z,3.71
2019-04-21T13:56:44.864Z,3.36
2019-04-21T13:59:16.092Z,4.17
2019-04-21T14:01:46.095Z,3.98
2019-04-21T14:04:17.681Z,3.54
2019-04-21T14:06:48.022Z,3.05
2019-04-21T14:09:19.855Z,2.82
2019-04-21T14:11:52.484Z,2.58
2019-04-21T14:14:21.508Z,2.48
2019-04-21T14:16:52.059Z,2.61
2019-04-21T14:19:21.794Z,2.82
2019-04-21T14:21:53.102Z,2.52
2019-04-21T14:24:22.962Z,2.51
2019-04-21T14:26:54.346Z,2.17
2019-04-21T14:29:25.734Z,2.37
2019-04-21T14:31:56.041Z,2.23
2019-04-21T14:34:26.026Z,2.44
2019-04-21T14:36:56.902Z,2.52
2019-04-21T14:39:28.246Z,2.33
2019-04-21T14:41:58.177Z,2.52
2019-04-21T14:44:31.107Z,2.56
2019-04-21T14:47:20.878Z,2.74
2019-04-21T14:50:24.231Z,3.09
2019-04-21T14:53:13.933Z,3.27
2019-04-21T14:55:45.780Z,4.08
2019-04-21T14:58:17.095Z,4.73
2019-04-21T15:00:57.786Z,5.38
2019-04-21T15:03:27.921Z,5.44
2019-04-21T15:05:57.747Z,6.71
2019-04-21T15:08:27.081Z,8.38
2019-04-21T15:10:56.893Z,9.01
2019-04-21T15:13:25.982Z,9.58
2019-04-21T15:15:56.160Z,10.37
2019-04-21T15:18:26.417Z,11.42
2019-04-21T15:20:55.291Z,12.20
2019-04-21T15:23:26.550Z,13.17
2019-04-21T15:25:54.391Z,12.03
2019-04-21T15:28:25.391Z,12.58
2019-04-21T15:30:54.470Z,12.15
2019-04-21T15:33:24.417Z,10.61
2019-04-21T15:35:53.240Z,11.35
2019-04-21T15:38:22.285Z,11.81
2019-04-21T15:40:56.027Z,12.17
2019-04-21T15:43:22.398Z,12.47
2019-04-21T15:45:52.892Z,13.17
2019-04-21T15:48:22.328Z,12.77
2019-04-21T15:50:52.390Z,12.46
2019-04-21T15:53:23.468Z,12.47
2019-04-21T15:56:05.016Z,13.50
2019-04-21T15:58:43.818Z,13.32
2019-04-21T16:01:24.869Z,11.16
2019-04-21T16:03:56.963Z,9.44
2019-04-21T16:06:25.380Z,10.19
2019-04-21T16:08:57.479Z,10.28
2019-04-21T16:11:25.947Z,10.72
2019-04-21T16:13:55.502Z,11.16
2019-04-21T16:16:27.316Z,11.46
2019-04-21T16:18:56.242Z,11.19
2019-04-21T16:21:26.236Z,10.28
2019-04-21T16:23:56.389Z,8.37
2019-04-21T16:26:26.634Z,8.16
2019-04-21T16:28:55.646Z,8.91
2019-04-21T16:31:24.743Z,9.15
2019-04-21T16:33:54.724Z,8.89
2019-04-21T16:36:23.561Z,8.40
2019-04-21T16:38:53.465Z,9.65
2019-04-21T16:41:22.494Z,10.19
2019-04-21T16:43:51.472Z,10.42
2019-04-21T16:46:23.279Z,10.63
2019-04-21T16:48:53.475Z,11.51
2019-04-21T16:51:22.458Z,11.92
2019-04-21T16:54:01.942Z,12.14
2019-04-21T16:56:35.863Z,12.45
2019-04-21T16:59:26.412Z,13.35
2019-04-21T17:01:56.462Z,14.04
2019-04-21T17:04:26.501Z,14.49
2019-04-21T17:06:55.538Z,14.79
2019-04-21T17:09:24.405Z,15.15
2019-04-21T17:11:58.056Z,15.14
2019-04-21T17:14:35.553Z,15.52
2019-04-21T17:17:17.869Z,15.25
2019-04-21T17:19:29.872Z,16.18
2019-04-21T17:21:55.442Z,16.68
2019-04-21T17:24:24.361Z,17.16
2019-04-21T17:26:55.251Z,16.57
2019-04-21T17:29:24.933Z,17.65
2019-04-21T17:31:55.205Z,17.84
2019-04-21T17:34:28.261Z,17.80
2019-04-21T17:36:55.395Z,18.79
2019-04-21T17:39:24.924Z,19.22
2019-04-21T17:42:05.338Z,19.79
2019-04-21T17:44:25.580Z,20.34
2019-04-21T17:47:01.414Z,20.18
2019-04-21T17:49:26.166Z,21.55
2019-04-21T17:52:19.461Z,22.13
2019-04-21T17:54:50.722Z,22.89
2019-04-21T17:57:36.267Z,23.60
2019-04-21T18:00:11.521Z,24.63
2019-04-21T18:02:41.420Z,25.26
2019-04-21T18:05:19.472Z,25.13
2019-04-21T18:07:46.437Z,25.35
2019-04-21T18:10:07.742Z,25.38
2019-04-21T18:12:36.064Z,25.65
2019-04-21T18:15:02.037Z,25.96
2019-04-21T18:17:24.319Z,26.01
2019-04-21T18:19:55.269Z,26.35
2019-04-21T18:22:47.479Z,26.66
2019-04-21T18:25:28.164Z,27.30
2019-04-21T18:27:46.786Z,27.76
2019-04-21T18:30:34.083Z,27.68
2019-04-21T18:33:05.858Z,28.37
2019-04-21T18:35:55.081Z,28.39
2019-04-21T18:38:53.092Z,28.64
2019-04-21T18:41:01.417Z,29.40
2019-04-21T18:43:56.476Z,29.50
2019-04-21T18:46:35.650Z,29.09
2019-04-21T18:48:51.632Z,29.77
2019-04-21T18:51:37.127Z,29.39
2019-04-21T18:54:26.910Z,29.52
2019-04-21T18:56:37.038Z,29.91
2019-04-21T18:59:06.869Z,29.87
2019-04-21T19:01:38.497Z,30.25
2019-04-21T19:04:16.849Z,30.68
2019-04-21T19:06:54.503Z,31.26
2019-04-21T19:09:35.589Z,30.67
2019-04-21T19:12:00.831Z,31.47
2019-04-21T19:14:46.488Z,31.68
2019-04-21T19:17:30.413Z,31.53
2019-04-21T19:22:09.139Z,32.81
2019-04-21T19:24:41.260Z,33.13
2019-04-21T19:29:52.160Z,33.92
2019-04-21T19:32:21.253Z,34.22
2019-04-21T19:34:35.994Z,34.03
2019-04-21T19:37:08.922Z,35.07
2019-04-21T19:39:43.165Z,35.07
2019-04-21T19:42:16.919Z,34.65
2019-04-21T19:44:52.180Z,35.33
2019-04-21T19:47:28.261Z,35.29
2019-04-21T19:50:04.664Z,35.42
2019-04-21T19:52:26.634Z,36.19
2019-04-21T19:54:46.776Z,36.47
2019-04-21T19:57:14.738Z,36.05
2019-04-21T19:59:48.568Z,36.59
2019-04-21T20:02:16.473Z,37.17
2019-04-21T20:04:54.415Z,37.53
2019-04-21T20:07:31.642Z,38.54
2019-04-21T20:10:15.484Z,38.36
2019-04-21T20:12:42.653Z,38.55
2019-04-21T20:15:20.512Z,39.70
2019-04-21T20:17:42.244Z,39.26
2019-04-21T20:19:56.223Z,39.49
2019-04-21T20:22:32.629Z,39.94
2019-04-21T20:25:04.934Z,41.20
2019-04-21T20:27:39.619Z,41.62
2019-04-21T20:30:21.938Z,42.36
2019-04-21T20:33:19.795Z,42.74
2019-04-21T20:35:35.016Z,43.23
2019-04-21T20:37:55.082Z,43.47
2019-04-21T20:40:19.717Z,44.26
2019-04-21T20:42:50.970Z,44.28
2019-04-21T20:47:48.771Z,45.06
2019-04-21T20:50:29.861Z,45.79
2019-04-21T20:53:06.126Z,46.51
2019-04-21T20:55:26.442Z,47.98
2019-04-21T20:58:01.483Z,48.27
2019-04-21T21:00:39.253Z,48.71
2019-04-21T21:03:14.520Z,49.09
2019-04-21T21:05:37.360Z,49.58
2019-04-21T21:08:20.009Z,49.87
2019-04-21T21:10:38.584Z,51.19
2019-04-21T21:15:52.560Z,54.62
2019-04-21T21:18:37.968Z,58.14
2019-04-21T21:20:57.094Z,60.04
2019-04-21T21:23:22.213Z,64.00
2019-04-21T21:25:57.195Z,65.81
2019-04-21T21:28:22.609Z,69.30
2019-04-21T21:30:55.633Z,72.73
2019-04-21T21:33:25.984Z,77.48
2019-04-21T21:36:06.675Z,80.31
2019-04-21T21:38:36.317Z,80.67
2019-04-21T21:40:59.894Z,82.30
2019-04-21T21:43:23.242Z,83.92
2019-04-21T21:45:57.341Z,84.98
2019-04-21T21:48:37.968Z,84.34
2019-04-21T21:51:04.163Z,85.80
2019-04-21T21:53:28.647Z,88.17
2019-04-21T21:55:58.418Z,88.41
2019-04-21T21:58:33.690Z,91.17
2019-04-21T22:01:02.973Z,91.76
2019-04-21T22:03:38.963Z,92.23
2019-04-21T22:06:09.636Z,91.21
2019-04-21T22:08:36.538Z,89.37
2019-04-21T22:11:07.196Z,88.34
2019-04-21T22:13:48.881Z,88.44
2019-04-21T22:16:13.991Z,88.92
2019-04-21T22:19:04.473Z,90.61
2019-04-21T22:21:34.727Z,92.83
2019-04-21T22:23:53.461Z,91.62
2019-04-21T22:26:15.573Z,91.75
2019-04-21T22:28:45.795Z,90.97
2019-04-21T22:31:22.439Z,93.82
2019-04-21T22:33:52.723Z,94.95
2019-04-21T22:36:33.120Z,94.29
2019-04-21T22:39:09.248Z,95.17
2019-04-21T22:41:30.980Z,96.18
2019-04-21T22:43:57.041Z,98.34
2019-04-21T22:46:26.342Z,99.11
2019-04-21T22:49:01.521Z,98.96
2019-04-21T22:51:37.088Z,99.62
2019-04-21T22:54:01.457Z,99.93
2019-04-21T22:56:33.603Z,100.00
2019-04-21T22:59:12.189Z,99.08
2019-04-21T23:01:41.080Z,100.00
2019-04-21T23:04:08.433Z,100.00
2019-04-21T23:06:39.607Z,100.00
2019-04-21T23:09:11.053Z,100.00
2019-04-21T23:11:45.629Z,100.00
2019-04-21T23:14:15.372Z,100.00
2019-04-21T23:16:45.975Z,100.00
2019-04-21T23:19:32.140Z,100.00
2019-04-21T23:22:03.568Z,100.00
2019-04-21T23:24:40.017Z,100.00
2019-04-21T23:27:04.812Z,100.00
2019-04-21T23:29:47.573Z,100.00
2019-04-21T23:32:10.237Z,100.00
2019-04-21T23:34:30.629Z,100.00
2019-04-21T23:37:06.736Z,100.00
2019-04-21T23:39:32.793Z,100.00
2019-04-21T23:42:03.154Z,100.00
2019-04-21T23:44:41.478Z,100.00
2019-04-21T23:47:08.591Z,100.00
2019-04-21T23:49:49.600Z,100.00
2019-04-21T23:52:10.990Z,100.00
2019-04-21T23:54:38.743Z,100.00
2019-04-21T23:57:15.064Z,100.00
2019-04-21T23:59:46.274Z,100.00
